Time;durP1;ratioP1;P1;durP2;ratioP2;P2;SDS_P1;SDS_P2;PMS_P1;PMS_P2;Temp;Humidity;BMP_temperature;BMP_pressure;BME280_temperature;BME280_humidity;BME280_pressure;Samples;Min_cycle;Max_cycle;Signal;HPM_P1;HPM_P2
2021/07/18 00:01:22;;;;;;;14.23;7.85;;;;;;;15.69;86.12;102689.38;4918796;28;20036;-51
2021/07/18 00:03:47;;;;;;;15.48;7.90;;;;;;;15.68;86.22;102688.47;4921077;28;20028;-48
2021/07/18 00:06:13;;;;;;;15.63;8.32;;;;;;;15.67;86.31;102684.09;4936070;28;20067;-48
2021/07/18 00:08:38;;;;;;;12.93;6.75;;;;;;;15.67;86.09;102684.09;4943627;28;20089;-52
2021/07/18 00:11:04;;;;;;;10.98;6.75;;;;;;;15.67;86.21;102688.47;4931846;28;20082;-50
2021/07/18 00:13:29;;;;;;;14.85;6.53;;;;;;;15.65;85.99;102684.91;4925417;28;20110;-51
2021/07/18 00:15:55;;;;;;;14.98;6.50;;;;;;;15.63;86.06;102682.22;4916775;28;20494;-51
2021/07/18 00:18:20;;;;;;;12.63;6.68;;;;;;;15.64;86.03;102680.50;4912864;28;20027;-51
2021/07/18 00:20:46;;;;;;;11.43;6.07;;;;;;;15.62;86.15;102675.19;4926683;28;20034;-49
2021/07/18 00:23:12;;;;;;;12.10;6.28;;;;;;;15.62;86.01;102677.81;4921253;28;20460;-51
2021/07/18 00:25:37;;;;;;;13.48;7.10;;;;;;;15.59;85.97;102671.63;4939678;28;21217;-50
2021/07/18 00:28:03;;;;;;;12.70;6.47;;;;;;;15.59;86.01;102669.00;4951044;28;20054;-51
2021/07/18 00:30:28;;;;;;;12.07;6.07;;;;;;;15.58;86.22;102669.84;4929799;28;20413;-51
2021/07/18 00:32:55;;;;;;;10.15;5.63;;;;;;;15.56;86.36;102671.53;4926485;28;20023;-49
2021/07/18 00:35:20;;;;;;;9.65;5.32;;;;;;;15.56;86.06;102676.81;4933625;28;20056;-51
2021/07/18 00:37:46;;;;;;;10.70;5.32;;;;;;;15.54;85.92;102666.28;4934276;28;20123;-52
2021/07/18 00:40:12;;;;;;;9.00;4.85;;;;;;;15.54;86.42;102674.16;4922336;28;20035;-53
2021/07/18 00:42:37;;;;;;;9.65;5.18;;;;;;;15.54;85.90;102679.44;4934892;28;20097;-52
2021/07/18 00:45:04;;;;;;;10.52;5.72;;;;;;;15.53;86.05;102675.03;4914184;28;20024;-49
2021/07/18 00:47:30;;;;;;;10.25;5.38;;;;;;;15.51;85.86;102678.41;4930308;28;20039;-50
2021/07/18 00:49:55;;;;;;;8.52;5.25;;;;;;;15.48;85.87;102676.63;4930787;28;20867;-48
2021/07/18 00:52:21;;;;;;;11.93;5.90;;;;;;;15.46;86.01;102680.97;4932681;28;20605;-53
2021/07/18 00:54:46;;;;;;;11.23;6.00;;;;;;;15.43;85.83;102675.63;4936240;28;20475;-51
2021/07/18 00:57:12;;;;;;;9.98;5.85;;;;;;;15.40;86.09;102668.56;4919442;28;20627;-51
2021/07/18 00:59:37;;;;;;;13.25;5.97;;;;;;;15.39;85.96;102668.53;4918206;28;20028;-48
2021/07/18 01:02:03;;;;;;;10.90;5.43;;;;;;;15.39;86.15;102674.66;4926769;28;20114;-49
2021/07/18 01:04:28;;;;;;;11.40;5.57;;;;;;;15.37;86.20;102676.38;4931655;28;20039;-49
2021/07/18 01:06:54;;;;;;;12.20;5.78;;;;;;;15.37;86.37;102673.75;4927479;28;20027;-49
2021/07/18 01:09:21;;;;;;;11.98;6.50;;;;;;;15.35;86.25;102670.22;4933017;28;20259;-50
2021/07/18 01:11:46;;;;;;;14.70;7.22;;;;;;;15.36;86.38;102673.72;4931478;28;20028;-51
2021/07/18 01:14:12;;;;;;;11.80;6.20;;;;;;;15.35;86.54;102664.97;4924219;28;20078;-53
2021/07/18 01:16:37;;;;;;;15.15;6.90;;;;;;;15.31;86.61;102668.34;4934685;28;20035;-49
2021/07/18 01:19:03;;;;;;;11.40;5.97;;;;;;;15.29;86.41;102662.19;4923902;28;20259;-53
2021/07/18 01:21:29;;;;;;;10.65;5.82;;;;;;;15.27;86.44;102660.38;4912540;28;20424;-48
2021/07/18 01:23:55;;;;;;;10.02;5.63;;;;;;;15.29;86.53;102661.31;4929470;28;20140;-51
2021/07/18 01:26:21;;;;;;;9.52;5.53;;;;;;;15.28;86.40;102664.78;4927811;28;20135;-51
2021/07/18 01:28:47;;;;;;;9.38;5.97;;;;;;;15.26;86.40;102661.22;4931607;28;20138;-49
2021/07/18 01:31:12;;;;;;;10.85;6.47;;;;;;;15.24;86.38;102658.59;4915582;28;20020;-48
2021/07/18 01:33:37;;;;;;;9.23;5.25;;;;;;;15.26;86.26;102653.34;4929895;28;20031;-50
2021/07/18 01:36:03;;;;;;;10.23;5.45;;;;;;;15.23;86.54;102648.03;4934651;28;20035;-49
2021/07/18 01:38:28;;;;;;;11.57;5.70;;;;;;;15.21;86.53;102644.47;4909271;28;20306;-48
2021/07/18 01:40:54;;;;;;;12.50;6.30;;;;;;;15.18;86.58;102650.56;4926879;28;20778;-50
2021/07/18 01:43:20;;;;;;;10.63;5.75;;;;;;;15.16;86.71;102635.59;4914010;28;20408;-51
2021/07/18 01:45:45;;;;;;;12.77;5.90;;;;;;;15.14;86.63;102640.81;4944986;28;20155;-48
2021/07/18 01:48:10;;;;;;;13.25;6.63;;;;;;;15.14;86.61;102647.81;4922662;28;20027;-48
2021/07/18 01:50:36;;;;;;;12.30;6.35;;;;;;;15.11;86.66;102646.00;4923653;28;20040;-49
2021/07/18 01:53:03;;;;;;;14.30;7.00;;;;;;;15.09;86.61;102646.81;4929119;28;20086;-52
2021/07/18 01:55:29;;;;;;;12.68;6.75;;;;;;;15.08;86.71;102642.41;4933936;28;20019;-49
2021/07/18 01:57:54;;;;;;;13.23;6.43;;;;;;;15.05;86.78;102637.09;4918517;28;20056;-49
2021/07/18 02:00:20;;;;;;;11.55;6.68;;;;;;;15.05;86.83;102640.63;4931397;28;20039;-49
2021/07/18 02:02:48;;;;;;;14.85;7.13;;;;;;;15.01;86.95;102633.50;4913528;28;20051;-48
2021/07/18 02:05:14;;;;;;;18.92;9.93;;;;;;;15.04;87.21;102641.47;4930021;28;20033;-51
2021/07/18 02:07:40;;;;;;;14.85;7.63;;;;;;;15.04;87.16;102641.47;4932155;28;20119;-48
2021/07/18 02:10:06;;;;;;;22.75;8.63;;;;;;;15.02;87.13;102646.69;4927536;28;20081;-49
2021/07/18 02:12:35;;;;;;;16.55;7.88;;;;;;;15.01;87.40;102649.25;4929879;28;20770;-50
2021/07/18 02:15:03;;;;;;;18.02;9.10;;;;;;;14.99;87.14;102645.72;4927487;28;20088;-51
2021/07/18 02:17:28;;;;;;;15.57;8.20;;;;;;;14.98;87.27;102646.56;4920834;28;20062;-53
2021/07/18 02:19:54;;;;;;;15.52;7.45;;;;;;;14.89;87.38;102651.59;4922326;28;20166;-48
2021/07/18 02:22:25;;;;;;;14.35;7.40;;;;;;;14.96;87.18;102645.63;4904010;28;20526;-53
2021/07/18 02:24:50;;;;;;;18.02;8.25;;;;;;;14.98;87.28;102643.94;4937717;28;20023;-52
2021/07/18 02:27:16;;;;;;;16.10;8.15;;;;;;;14.97;87.10;102636.91;4931064;28;20513;-51
2021/07/18 02:29:41;;;;;;;19.77;10.13;;;;;;;14.96;87.13;102637.75;4923731;28;20031;-48
2021/07/18 02:32:07;;;;;;;15.82;8.75;;;;;;;14.94;87.30;102635.09;4926174;28;20047;-52
2021/07/18 02:34:32;;;;;;;14.32;7.65;;;;;;;14.93;87.02;102635.09;4919749;28;20034;-49
2021/07/18 02:36:57;;;;;;;16.88;7.95;;;;;;;14.91;87.24;102635.03;4938914;28;20032;-51
2021/07/18 02:39:23;;;;;;;17.10;7.93;;;;;;;14.91;87.16;102642.03;4926948;28;20464;-49
2021/07/18 02:41:48;;;;;;;16.23;7.82;;;;;;;14.90;87.32;102635.00;4926359;28;20115;-51
2021/07/18 02:44:14;;;;;;;15.75;7.68;;;;;;;14.90;87.15;102641.13;4920458;28;20130;-50
2021/07/18 02:46:40;;;;;;;19.58;8.13;;;;;;;14.88;87.32;102637.56;4926076;28;20146;-53
2021/07/18 02:49:05;;;;;;;17.75;8.05;;;;;;;14.88;87.24;102641.97;4921820;28;20020;-52
2021/07/18 02:51:31;;;;;;;14.32;7.40;;;;;;;14.88;86.92;102641.97;4924204;28;20027;-53
2021/07/18 02:53:56;;;;;;;15.05;7.55;;;;;;;14.85;87.04;102640.16;4922470;28;20044;-50
2021/07/18 02:56:22;;;;;;;15.77;6.95;;;;;;;14.84;86.89;102629.59;4922375;28;20284;-49
2021/07/18 02:58:47;;;;;;;12.90;7.45;;;;;;;14.84;87.14;102621.72;4920013;28;20054;-52
2021/07/18 03:01:13;;;;;;;13.80;7.45;;;;;;;14.83;87.04;102628.72;4925417;28;20407;-50
2021/07/18 03:03:38;;;;;;;21.15;9.50;;;;;;;14.84;87.28;102626.97;4929990;28;20726;-49
2021/07/18 03:06:03;;;;;;;15.98;8.10;;;;;;;14.88;87.35;102631.47;4931292;28;20419;-50
2021/07/18 03:08:29;;;;;;;14.38;7.40;;;;;;;14.88;87.13;102628.84;4926046;28;20399;-51
2021/07/18 03:10:54;;;;;;;12.77;6.78;;;;;;;14.82;87.23;102633.94;4939455;28;20031;-50
2021/07/18 03:13:19;;;;;;;14.48;7.65;;;;;;;14.80;87.10;102620.78;4931547;28;20027;-49
2021/07/18 03:15:44;;;;;;;16.02;7.70;;;;;;;14.79;87.25;102623.34;4925261;28;20119;-48
2021/07/18 03:18:10;;;;;;;11.50;6.13;;;;;;;14.76;87.01;102618.91;4940314;28;20024;-49
2021/07/18 03:20:35;;;;;;;12.15;6.63;;;;;;;14.77;86.97;102614.53;4929960;28;20455;-49
2021/07/18 03:23:01;;;;;;;14.30;7.00;;;;;;;14.77;87.09;102615.44;4928301;28;20490;-51
2021/07/18 03:25:27;;;;;;;10.70;6.30;;;;;;;14.77;87.05;102610.19;4925356;28;20035;-50
2021/07/18 03:27:52;;;;;;;11.80;6.15;;;;;;;14.77;87.05;102604.03;4924602;28;20586;-48
2021/07/18 03:30:19;;;;;;;11.38;5.80;;;;;;;14.76;86.83;102613.66;4924279;28;20495;-52
2021/07/18 03:32:45;;;;;;;11.80;5.22;;;;;;;14.78;86.90;102608.44;4909688;28;20082;-52
2021/07/18 03:35:11;;;;;;;11.73;5.43;;;;;;;14.80;86.98;102612.91;4926932;28;20531;-50
2021/07/18 03:37:37;;;;;;;13.38;7.13;;;;;;;14.81;86.79;102608.53;4927893;28;20525;-52
2021/07/18 03:40:08;;;;;;;12.32;5.82;;;;;;;14.81;87.20;102612.06;4921233;28;20463;-54
2021/07/18 03:42:33;;;;;;;11.02;5.97;;;;;;;14.82;86.87;102607.69;4927413;28;20443;-53
2021/07/18 03:44:59;;;;;;;10.88;5.93;;;;;;;14.83;86.91;102601.56;4932250;28;20031;-50
2021/07/18 03:47:24;;;;;;;14.68;6.72;;;;;;;14.83;86.87;102602.44;4934255;28;20049;-49
2021/07/18 03:49:49;;;;;;;13.02;6.43;;;;;;;14.82;87.01;102608.53;4921157;28;20036;-51
2021/07/18 03:52:15;;;;;;;13.45;6.10;;;;;;;14.86;86.65;102609.53;4925442;28;20031;-52
2021/07/18 03:54:40;;;;;;;12.02;6.68;;;;;;;14.86;86.64;102607.78;4927776;28;20550;-51
2021/07/18 03:57:05;;;;;;;11.88;6.07;;;;;;;14.84;86.96;102608.59;4918175;28;20094;-50
2021/07/18 03:59:31;;;;;;;10.98;5.82;;;;;;;14.83;86.95;102610.31;4924647;28;20372;-50
2021/07/18 04:01:56;;;;;;;11.85;6.57;;;;;;;14.84;86.70;102608.59;4926718;28;20124;-48
2021/07/18 04:04:22;;;;;;;14.43;6.75;;;;;;;14.86;86.86;102620.91;4932028;28;20042;-49
2021/07/18 04:06:47;;;;;;;11.82;5.88;;;;;;;14.89;87.11;102618.34;4926273;28;20035;-50
2021/07/18 04:09:12;;;;;;;12.50;6.35;;;;;;;14.95;87.22;102618.50;4920051;28;20409;-50
2021/07/18 04:11:38;;;;;;;14.60;7.80;;;;;;;15.00;87.33;102614.22;4939452;28;20028;-48
2021/07/18 04:14:03;;;;;;;17.05;7.03;;;;;;;15.08;87.26;102614.41;4914062;28;20028;-51
2021/07/18 04:16:28;;;;;;;16.27;8.38;;;;;;;15.12;87.18;102615.38;4917223;28;20403;-48
2021/07/18 04:18:54;;;;;;;17.98;8.43;;;;;;;15.16;87.02;102619.84;4933006;28;20043;-50
2021/07/18 04:21:19;;;;;;;16.60;8.30;;;;;;;15.20;87.55;102619.03;4931329;28;20092;-51
2021/07/18 04:23:48;;;;;;;14.30;7.85;;;;;;;15.23;87.04;102621.75;4925550;28;20039;-50
2021/07/18 04:26:14;;;;;;;19.25;9.35;;;;;;;15.26;87.00;102620.06;4931060;28;20547;-48
2021/07/18 04:28:39;;;;;;;16.15;8.15;;;;;;;15.32;86.99;102614.94;4925385;28;20050;-50
2021/07/18 04:31:05;;;;;;;13.20;8.35;;;;;;;15.40;86.83;102612.50;4915862;28;20033;-50
2021/07/18 04:33:30;;;;;;;14.77;7.90;;;;;;;15.44;86.63;102620.47;4937602;28;20551;-49
2021/07/18 04:35:55;;;;;;;12.75;7.60;;;;;;;15.51;86.45;102615.34;4949985;28;20220;-51
2021/07/18 04:38:21;;;;;;;13.23;7.90;;;;;;;15.58;86.25;102615.53;4931653;28;20454;-50
2021/07/18 04:40:46;;;;;;;14.20;8.18;;;;;;;15.67;86.30;102621.00;4932864;28;20025;-52
2021/07/18 04:43:11;;;;;;;12.77;7.63;;;;;;;15.79;85.94;102617.72;4924904;28;20027;-50
2021/07/18 04:45:37;;;;;;;13.10;7.88;;;;;;;15.90;85.70;102621.44;4924851;28;20664;-51
2021/07/18 04:48:02;;;;;;;15.60;7.97;;;;;;;16.05;85.58;102620.81;4920904;28;20066;-48
2021/07/18 04:50:28;;;;;;;12.65;7.03;;;;;;;16.23;84.79;102624.69;4928501;28;20035;-50
2021/07/18 04:52:55;;;;;;;11.38;7.10;;;;;;;16.59;84.93;102627.09;4914563;28;20519;-48
2021/07/18 04:55:20;;;;;;;11.57;6.80;;;;;;;17.01;83.48;102631.28;4929225;28;20028;-51
2021/07/18 04:57:46;;;;;;;10.65;6.90;;;;;;;17.45;82.07;102616.94;4939915;28;20552;-49
2021/07/18 05:00:17;;;;;;;10.43;6.30;;;;;;;18.11;80.46;102620.38;4925500;28;20027;-53
2021/07/18 05:02:42;;;;;;;12.55;6.03;;;;;;;18.84;77.53;102623.69;4912180;28;20399;-48
2021/07/18 05:05:12;;;;;;;8.27;5.40;;;;;;;19.53;74.20;102612.63;4931614;28;20031;-52
2021/07/18 05:08:04;;;;;;;10.07;5.13;;;;;;;20.34;70.46;102615.50;4908566;28;20335;-51
2021/07/18 05:10:30;;;;;;;9.68;4.80;;;;;;;20.83;69.34;102611.06;4932031;28;20040;-50
2021/07/18 05:12:57;;;;;;;9.27;4.63;;;;;;;20.95;68.60;102614.59;4932465;28;20070;-51
2021/07/18 05:15:24;;;;;;;6.63;4.57;;;;;;;20.87;68.49;102612.81;4932471;28;20031;-49
2021/07/18 05:17:51;;;;;;;7.32;4.70;;;;;;;20.75;69.33;102616.38;4924300;28;20027;-48
2021/07/18 05:20:17;;;;;;;8.65;4.68;;;;;;;20.58;70.03;102610.22;4950455;28;20038;-49
2021/07/18 05:22:43;;;;;;;7.97;4.70;;;;;;;20.25;70.39;102611.03;4922229;28;20118;-51
2021/07/18 05:25:10;;;;;;;8.25;5.00;;;;;;;20.05;71.33;102604.84;4931831;28;20023;-52
2021/07/18 05:27:36;;;;;;;9.50;4.97;;;;;;;19.92;71.79;102611.88;4926465;28;20051;-49
2021/07/18 05:30:02;;;;;;;7.75;5.28;;;;;;;19.76;72.98;102615.38;4936081;28;20473;-48
2021/07/18 05:32:27;;;;;;;8.70;5.38;;;;;;;19.59;73.62;102612.66;4939507;28;20091;-51
2021/07/18 05:34:53;;;;;;;7.47;5.10;;;;;;;19.43;74.34;102610.81;4932637;28;20587;-51
2021/07/18 05:37:18;;;;;;;11.82;5.82;;;;;;;19.36;74.65;102607.25;4927505;28;20043;-48
2021/07/18 05:39:44;;;;;;;9.35;5.40;;;;;;;19.34;74.81;102610.75;4924156;28;20452;-50
2021/07/18 05:42:09;;;;;;;8.35;5.35;;;;;;;19.18;75.65;102609.78;4923653;28;20399;-51
2021/07/18 05:44:34;;;;;;;9.95;5.13;;;;;;;19.04;76.03;102612.34;4918250;28;20563;-50
2021/07/18 05:47:00;;;;;;;7.82;4.90;;;;;;;19.06;75.59;102612.38;4925352;28;20100;-50
2021/07/18 05:49:27;;;;;;;8.32;5.15;;;;;;;19.14;75.51;102612.41;4950983;28;20112;-51
2021/07/18 05:51:52;;;;;;;10.20;5.50;;;;;;;19.13;75.51;102610.66;4925223;28;20738;-49
2021/07/18 05:54:17;;;;;;;11.23;5.30;;;;;;;19.20;75.28;102612.47;4926850;28;20089;-50
2021/07/18 05:56:43;;;;;;;9.52;5.03;;;;;;;19.16;75.07;102611.53;4932239;28;20471;-50
2021/07/18 05:59:08;;;;;;;9.57;5.10;;;;;;;19.42;74.42;102604.63;4927574;28;20491;-49
2021/07/18 06:01:33;;;;;;;9.73;4.20;;;;;;;20.00;73.27;102615.44;4924321;28;20038;-52
2021/07/18 06:03:59;;;;;;;10.30;4.35;;;;;;;21.15;69.29;102614.59;4919989;28;20077;-49
2021/07/18 06:06:24;;;;;;;6.90;3.95;;;;;;;22.05;65.65;102614.19;4931123;28;20123;-52
2021/07/18 06:08:49;;;;;;;8.30;3.33;;;;;;;23.43;62.04;102612.91;4929435;28;20028;-51
2021/07/18 06:11:15;;;;;;;5.65;3.17;;;;;;;24.25;58.60;102612.69;4941159;28;20038;-50
2021/07/18 06:13:40;;;;;;;5.35;3.03;;;;;;;24.76;57.34;102611.84;4938231;28;20121;-48
2021/07/18 06:16:08;;;;;;;4.78;2.78;;;;;;;25.24;55.74;102607.38;4922225;28;20523;-52
2021/07/18 06:18:33;;;;;;;7.65;2.60;;;;;;;25.84;53.87;102605.22;4935735;28;20053;-50
2021/07/18 06:20:58;;;;;;;4.07;2.55;;;;;;;26.19;53.71;102607.94;4930298;28;20418;-52
2021/07/18 06:23:24;;;;;;;3.85;2.40;;;;;;;26.04;52.95;102608.31;4917496;28;20043;-53
2021/07/18 06:25:49;;;;;;;4.97;2.67;;;;;;;25.98;54.73;102611.13;4929826;28;20051;-52
2021/07/18 06:28:15;;;;;;;4.75;2.60;;;;;;;26.10;52.97;102604.63;4926320;28;20374;-48
2021/07/18 06:30:40;;;;;;;5.38;2.30;;;;;;;26.95;51.18;102607.84;4931603;28;20647;-48
2021/07/18 06:33:06;;;;;;;3.88;2.13;;;;;;;27.15;49.92;102599.22;4934742;28;20008;-50
2021/07/18 06:35:31;;;;;;;4.55;2.13;;;;;;;27.58;50.46;102598.88;4926533;28;20035;-49
2021/07/18 06:37:56;;;;;;;5.03;2.10;;;;;;;27.82;48.88;102596.31;4936940;28;20044;-52
2021/07/18 06:40:22;;;;;;;5.18;2.28;;;;;;;28.43;46.24;102601.53;4947292;28;20385;-53
2021/07/18 06:42:47;;;;;;;4.78;1.80;;;;;;;28.96;45.84;102591.66;4923437;28;20669;-49
2021/07/18 06:45:14;;;;;;;5.22;1.95;;;;;;;28.87;47.01;102608.06;4939216;28;20505;-53
2021/07/18 06:47:40;;;;;;;4.63;2.10;;;;;;;29.17;44.32;102598.91;4928350;28;20034;-51
2021/07/18 06:50:06;;;;;;;4.20;1.90;;;;;;;29.03;47.29;102607.47;4930946;28;20153;-49
2021/07/18 06:52:31;;;;;;;4.07;1.75;;;;;;;29.46;45.74;102594.28;4921184;28;20338;-51
2021/07/18 06:54:57;;;;;;;3.22;1.70;;;;;;;29.25;45.02;102599.50;4922026;28;20035;-51
2021/07/18 06:57:23;;;;;;;2.92;1.80;;;;;;;29.68;44.91;102600.56;4920701;28;20067;-52
2021/07/18 06:59:48;;;;;;;2.35;1.50;;;;;;;29.60;44.38;102590.13;4932164;28;20082;-54
2021/07/18 07:02:14;;;;;;;4.85;1.80;;;;;;;29.80;43.94;102595.59;4940895;28;20027;-52
2021/07/18 07:04:40;;;;;;;3.45;1.38;;;;;;;29.81;42.95;102597.34;4940989;28;20066;-52
2021/07/18 07:07:05;;;;;;;3.78;1.65;;;;;;;30.34;42.02;102598.78;4907568;28;20468;-51
2021/07/18 07:09:31;;;;;;;3.88;1.85;;;;;;;30.15;43.15;102599.56;4931422;28;20054;-49
2021/07/18 07:11:57;;;;;;;5.03;1.73;;;;;;;30.53;43.19;102603.38;4930762;28;20036;-50
2021/07/18 07:14:22;;;;;;;4.43;1.75;;;;;;;29.84;44.58;102601.72;4930686;28;20601;-52
2021/07/18 07:16:47;;;;;;;2.85;1.40;;;;;;;29.98;44.20;102606.56;4904253;28;20031;-50
2021/07/18 07:19:13;;;;;;;3.20;1.63;;;;;;;29.77;44.59;102601.06;4920869;28;20034;-55
2021/07/18 07:21:39;;;;;;;4.07;1.70;;;;;;;29.78;44.16;102601.94;4920831;28;20150;-52
2021/07/18 07:24:04;;;;;;;4.53;1.50;;;;;;;30.43;42.92;102603.81;4929657;28;20032;-52
2021/07/18 07:26:30;;;;;;;3.70;1.60;;;;;;;30.35;44.15;102609.50;4915386;28;20445;-52
2021/07/18 07:28:55;;;;;;;3.25;1.55;;;;;;;30.59;42.69;102600.41;4924566;28;20557;-52
2021/07/18 07:31:21;;;;;;;3.40;1.65;;;;;;;30.36;44.28;102594.22;4925716;28;20382;-51
2021/07/18 07:33:46;;;;;;;4.80;1.60;;;;;;;30.40;42.06;102601.22;4932514;28;20039;-51
2021/07/18 07:36:12;;;;;;;4.70;1.50;;;;;;;30.15;42.96;102609.44;4931237;28;21220;-51
2021/07/18 07:38:37;;;;;;;4.97;1.52;;;;;;;30.19;45.17;102601.19;4926876;28;20890;-54
2021/07/18 07:41:03;;;;;;;4.53;1.65;;;;;;;30.19;44.15;102605.72;4912363;28;20507;-54
2021/07/18 07:43:28;;;;;;;5.68;1.58;;;;;;;30.53;43.14;102603.38;4930296;28;20035;-49
2021/07/18 07:45:54;;;;;;;3.45;1.60;;;;;;;31.24;40.98;102595.75;4923176;28;20027;-52
2021/07/18 07:48:19;;;;;;;4.47;1.40;;;;;;;31.30;40.77;102599.03;4927742;28;20450;-54
2021/07/18 07:50:45;;;;;;;4.05;1.30;;;;;;;30.97;41.67;102597.84;4924378;28;20547;-53
2021/07/18 07:53:10;;;;;;;7.05;1.40;;;;;;;30.75;41.13;102599.72;4943931;28;20036;-50
2021/07/18 07:55:36;;;;;;;4.28;1.50;;;;;;;30.42;39.82;102597.53;4928564;28;20059;-52
2021/07/18 07:58:02;;;;;;;3.38;1.45;;;;;;;30.40;41.08;102612.88;4934062;28;20039;-54
2021/07/18 08:00:28;;;;;;;3.00;1.30;;;;;;;31.24;40.08;102603.81;4913970;28;20031;-53
2021/07/18 08:02:53;;;;;;;2.40;1.40;;;;;;;31.63;38.00;102603.81;4928247;28;20063;-52
2021/07/18 08:05:20;;;;;;;4.68;1.40;;;;;;;31.06;40.19;102608.22;4925925;28;20031;-50
2021/07/18 08:07:45;;;;;;;3.00;1.40;;;;;;;31.52;38.51;102598.03;4919711;28;20023;-53
2021/07/18 08:10:15;;;;;;;3.55;1.30;;;;;;;32.04;37.61;102599.09;4920635;28;20047;-52
2021/07/18 08:12:42;;;;;;;1.88;1.30;;;;;;;32.29;36.75;102604.19;4920503;28;20031;-51
2021/07/18 08:15:08;;;;;;;4.03;1.50;;;;;;;31.55;38.32;102600.56;4926555;28;20122;-52
2021/07/18 08:17:35;;;;;;;3.00;1.30;;;;;;;30.65;42.61;102607.34;4923624;28;20498;-54
2021/07/18 08:20:02;;;;;;;3.42;1.63;;;;;;;30.96;39.73;102604.19;4908852;28;20032;-50
2021/07/18 08:22:28;;;;;;;3.50;1.55;;;;;;;30.74;40.47;102606.94;4919618;28;20039;-53
2021/07/18 08:24:53;;;;;;;4.45;1.40;;;;;;;30.95;41.73;102605.13;4928949;28;20028;-52
2021/07/18 08:27:18;;;;;;;3.72;1.40;;;;;;;31.20;39.83;102604.91;4939306;28;20078;-50
2021/07/18 08:29:45;;;;;;;3.45;1.80;;;;;;;31.70;38.17;102599.91;4921257;28;20466;-54
2021/07/18 08:32:10;;;;;;;3.60;1.30;;;;;;;31.77;37.31;102595.97;4929170;28;20043;-52
2021/07/18 08:34:35;;;;;;;2.90;1.48;;;;;;;31.33;40.03;102593.50;4926777;28;20650;-54
2021/07/18 08:37:01;;;;;;;2.95;1.30;;;;;;;31.13;39.74;102593.53;4922470;28;20591;-48
2021/07/18 08:39:26;;;;;;;6.05;1.70;;;;;;;30.75;41.51;102597.03;4926123;28;20543;-48
2021/07/18 08:41:53;;;;;;;3.70;1.58;;;;;;;30.61;40.15;102594.97;4922546;28;20027;-50
2021/07/18 08:44:20;;;;;;;4.28;1.75;;;;;;;30.35;39.92;102590.66;4909333;28;20031;-50
2021/07/18 08:46:45;;;;;;;3.25;1.75;;;;;;;29.79;43.04;102601.91;4923244;28;20042;-51
2021/07/18 08:49:10;;;;;;;2.40;1.55;;;;;;;29.68;43.39;102598.75;4920360;28;20510;-49
2021/07/18 08:51:37;;;;;;;4.85;1.70;;;;;;;29.15;43.22;102600.78;4929052;28;20044;-53
2021/07/18 08:54:03;;;;;;;5.20;1.83;;;;;;;28.90;43.57;102591.88;4927480;28;20114;-50
2021/07/18 08:56:32;;;;;;;3.20;1.75;;;;;;;28.50;45.08;102603.06;4930784;28;20102;-50
2021/07/18 08:59:05;;;;;;;4.35;1.85;;;;;;;28.31;45.18;102584.03;4926404;28;20430;-50
2021/07/18 09:01:31;;;;;;;3.78;1.60;;;;;;;28.61;43.85;102584.78;4926124;28;20043;-51
2021/07/18 09:03:57;;;;;;;4.68;1.60;;;;;;;28.44;44.22;102593.44;4931692;28;20168;-52
2021/07/18 09:06:22;;;;;;;3.67;1.80;;;;;;;28.28;45.88;102591.31;4932132;28;20118;-51
2021/07/18 09:08:49;;;;;;;3.47;1.73;;;;;;;28.13;46.85;102589.97;4907518;28;20146;-50
2021/07/18 09:11:16;;;;;;;3.95;1.83;;;;;;;27.74;44.74;102584.09;4930964;28;20043;-50
2021/07/18 09:13:54;;;;;;;3.67;1.80;;;;;;;27.80;45.87;102587.47;4932828;28;20027;-51
2021/07/18 09:16:27;;;;;;;4.00;2.00;;;;;;;27.93;47.29;102587.09;4923191;28;20038;-51
2021/07/18 09:18:53;;;;;;;3.00;1.67;;;;;;;27.97;46.74;102589.63;4923606;28;20032;-49
2021/07/18 09:21:18;;;;;;;3.90;1.88;;;;;;;28.13;46.13;102581.94;4925003;28;20032;-53
2021/07/18 09:23:44;;;;;;;8.38;2.00;;;;;;;27.95;46.85;102582.53;4934740;28;20592;-52
2021/07/18 09:26:25;;;;;;;3.63;1.77;;;;;;;27.97;46.05;102580.69;4927089;28;20055;-52
2021/07/18 09:28:51;;;;;;;4.32;1.85;;;;;;;28.08;46.18;102584.78;4939783;28;20044;-51
2021/07/18 09:31:26;;;;;;;4.63;1.80;;;;;;;28.00;45.67;102583.25;4925912;28;20122;-50
2021/07/18 09:34:19;;;;;;;6.63;2.10;;;;;;;27.82;47.42;102585.59;4908897;28;20035;-51
2021/07/18 09:36:45;;;;;;;3.88;1.83;;;;;;;27.93;47.49;102587.97;4939554;28;20039;-53
2021/07/18 09:39:13;;;;;;;6.05;2.00;;;;;;;27.82;49.76;102590.09;4932090;28;20023;-51
2021/07/18 09:41:40;;;;;;;6.70;1.80;;;;;;;27.81;47.33;102583.84;4932343;28;20039;-49
2021/07/18 09:44:05;;;;;;;3.38;1.77;;;;;;;27.85;49.82;102581.97;4928053;28;20032;-50
2021/07/18 09:46:34;;;;;;;6.15;2.08;;;;;;;27.87;48.77;102576.56;4930805;28;20062;-46
2021/07/18 09:49:03;;;;;;;5.05;2.10;;;;;;;27.98;47.10;102579.78;4914710;28;20550;-49
2021/07/18 09:51:28;;;;;;;5.15;2.13;;;;;;;27.67;47.66;102577.19;4920580;28;20244;-49
2021/07/18 09:54:13;;;;;;;4.18;1.80;;;;;;;27.88;45.76;102575.59;4925829;28;20495;-50
2021/07/18 09:56:39;;;;;;;7.30;2.22;;;;;;;27.93;47.20;102579.03;4922626;28;20089;-52
2021/07/18 09:59:05;;;;;;;5.18;2.03;;;;;;;27.90;48.07;102573.75;4935927;28;20723;-49
2021/07/18 10:01:33;;;;;;;2.85;1.90;;;;;;;27.81;45.00;102570.44;4930898;28;20023;-55
2021/07/18 10:03:58;;;;;;;4.38;1.90;;;;;;;27.66;47.84;102570.06;4907699;28;20491;-49
2021/07/18 10:06:25;;;;;;;3.28;1.80;;;;;;;27.89;45.80;102574.69;4926291;28;20255;-48
2021/07/18 10:08:53;;;;;;;4.38;1.98;;;;;;;27.89;47.16;102572.00;4937849;28;20031;-51
2021/07/18 10:11:21;;;;;;;5.88;1.80;;;;;;;28.01;48.72;102575.16;4942576;28;20423;-50
2021/07/18 10:13:48;;;;;;;3.35;1.75;;;;;;;28.04;43.32;102574.22;4932979;28;20035;-51
2021/07/18 10:16:14;;;;;;;3.88;1.90;;;;;;;28.11;45.42;102584.69;4924634;28;20031;-51
2021/07/18 10:18:41;;;;;;;5.05;1.63;;;;;;;28.14;45.64;102576.56;4905326;28;20034;-54
2021/07/18 10:21:08;;;;;;;4.65;2.25;;;;;;;28.06;47.56;102577.69;4921720;28;20484;-53
2021/07/18 10:23:36;;;;;;;5.20;1.70;;;;;;;28.16;47.56;102568.47;4935670;28;20433;-52
2021/07/18 10:26:02;;;;;;;3.78;1.70;;;;;;;28.26;45.99;102572.59;4911289;28;20715;-54
2021/07/18 10:28:27;;;;;;;3.40;1.60;;;;;;;28.22;45.88;102568.28;4923737;28;20179;-49
2021/07/18 10:30:59;;;;;;;4.53;1.85;;;;;;;27.95;47.08;102571.81;4917625;28;20134;-49
2021/07/18 10:33:25;;;;;;;3.80;1.75;;;;;;;28.04;44.97;102563.47;4915013;28;20027;-49
2021/07/18 10:35:53;;;;;;;5.60;1.80;;;;;;;28.01;44.86;102561.75;4915893;28;20406;-46
2021/07/18 10:38:20;;;;;;;3.83;1.60;;;;;;;28.17;44.86;102557.72;4910405;28;20043;-49
2021/07/18 10:40:48;;;;;;;5.65;1.80;;;;;;;28.38;47.82;102564.13;4925778;28;20024;-48
2021/07/18 10:43:45;;;;;;;4.57;1.60;;;;;;;28.40;43.81;102558.72;4912034;28;20738;-49
2021/07/18 10:46:13;;;;;;;2.83;1.60;;;;;;;28.42;44.26;102557.72;4932416;28;20674;-50
2021/07/18 10:48:55;;;;;;;3.25;1.65;;;;;;;28.46;42.88;102556.69;4924015;28;20038;-52
2021/07/18 10:51:33;;;;;;;2.90;1.60;;;;;;;28.38;44.48;102548.03;4918728;28;20042;-48
2021/07/18 10:54:17;;;;;;;3.05;1.60;;;;;;;28.18;43.86;102543.34;4923962;28;20114;-46
2021/07/18 10:56:44;;;;;;;3.45;1.70;;;;;;;28.27;46.12;102544.84;4924702;28;20034;-51
2021/07/18 10:59:37;;;;;;;3.33;1.70;;;;;;;28.38;44.79;102552.53;4920923;28;20420;-52
2021/07/18 11:02:08;;;;;;;6.82;1.85;;;;;;;28.42;43.75;102548.81;4936117;28;20031;-52
2021/07/18 11:04:40;;;;;;;3.55;1.70;;;;;;;28.31;47.05;102549.16;4921218;28;20102;-50
2021/07/18 11:07:20;;;;;;;4.10;1.60;;;;;;;28.32;43.98;102550.03;4921330;28;20039;-50
2021/07/18 11:09:47;;;;;;;3.72;1.40;;;;;;;28.33;44.73;102549.13;4930814;28;20086;-50
2021/07/18 11:12:46;;;;;;;3.85;1.63;;;;;;;28.22;47.45;102545.00;4937880;28;20137;-51
2021/07/18 11:15:12;;;;;;;2.53;1.50;;;;;;;28.15;42.60;102545.25;4874707;28;20411;-51
2021/07/18 11:17:55;;;;;;;5.33;1.70;;;;;;;27.89;44.47;102545.19;4928648;28;20035;-48
2021/07/18 11:20:38;;;;;;;4.47;1.90;;;;;;;27.94;45.66;102537.88;4930785;28;20389;-48